Shakopee, MN

9:46 AM CDT on October 22, 2014 (GMT -0500)
KMNSHAKO1 | Change Station
CLOSE
Current Station
Personal Weather Station
Location: Shakopee, MN
Elevation: 807 ft
Nearby Weather Stations

Elev 807 ft 44.78 °N, 93.53 °W | Updated 6 seconds ago

Partly Cloudy
Partly Cloudy
47.1 °F
Feels Like 47 °F
N
0.0
Wind Variable Wind from SE
Gusts 6.3 mph

Today
High -- | Low -- °F
--% Chance of Precip.
Yesterday
High -- | Low -- °F
Precip. -- in
7:38 AM 6:17 PM
Waning Crescent, 2% visible
Pressure 30.19 in
Visibility 10.0 miles
Clouds Few 5500 ft
Windchill 47 °F
Dew Point 40 °F
Humidity 77%
Rainfall 0.00 in
Snow Depth Not available.
UV 1 out of 12
Pollen .10 out of 12
Ozone Good
PM2.5 Good
Flu Activity Sporadic
METAR KFCM 221353Z 15015KT 10SM FEW055 07/03 A3017 RMK AO2 SLP223 T00670033

More Conditions Fewer Conditions

Pressure 30.19 in
Visibility 10.0 miles
Clouds Few 5500 ft
Windchill 47 °F
Dew Point 40 °F
Humidity 77%
Rainfall 0.00 in
Snow Depth Not available.
UV 1 out of 12
Pollen .10 out of 12
Ozone Good
PM2.5 Good
Flu Activity Sporadic
METAR KFCM 221353Z 15015KT 10SM FEW055 07/03 A3017 RMK AO2 SLP223 T00670033

More Conditions Fewer Conditions

10-Day Weather Forecast

Almanac

Astronomy

Oct. 22, 2014 Rise Set
Actual Time 7:38 AM CDT 6:17 PM CDT
Civil Twilight 7:08 AM CDT 6:47 PM CDT
Nautical Twilight 6:34 AM CDT 7:21 PM CDT
Astronomical Twilight 6:00 AM CDT 7:55 PM CDT
Moon 6:17 AM CDT 5:46 PM CDT
Length of Visible Light 11h 38m
Length of Day
10h 38m
Tomorrow will be 2m 56s shorter.
Waning Crescent, 2% of the Moon is Illuminated
Today
Waning Crescent
Oct 23
New
Oct 30
First Quarter
Nov 6
Full
Nov 14
Last Quarter

Today's Extremes

State Highs State Lows

Community

WunderPhotos

Upload Photos

1,763,935 photos uploaded!

WunderBlogs® & News

Nearby

Air Quality

  Air Quality AQ Index Pollutant
Yesterday Good
PM2.5
Yesterday Good
OZONE
Current Good
PM2.5
Current Good
OZONE
Wednesday Good
PM2.5
Thursday Good
PM2.5
Friday Moderate
PM2.5
Saturday Moderate
PM2.5
Sunday Moderate
PM2.5

Snow Depth

Station Depth Elevation
No new snow has been reported.

Earthquake Activity

City Distance Mag. Time & Date
No recent earthquake activity has been reported nearby.
Minimum magnitude displayed is 2.5.

Coastal Water Temperatures

Place Temperature
No Stations Reporting

Nearby Weather Stations